createdAt,value
2022-08-26T00:02:07.245Z,23.08
2022-08-26T00:04:35.455Z,23.08
2022-08-26T00:07:03.622Z,23.11
2022-08-26T00:09:37.294Z,23.21
2022-08-26T00:12:12.148Z,23.21
2022-08-26T00:14:40.810Z,23.23
2022-08-26T00:17:09.300Z,23.24
2022-08-26T00:19:37.396Z,23.22
2022-08-26T00:22:05.971Z,23.05
2022-08-26T00:24:34.074Z,23.19
2022-08-26T00:27:02.033Z,23.19
2022-08-26T00:29:34.861Z,23.37
2022-08-26T00:32:06.333Z,23.39
2022-08-26T00:34:34.550Z,23.31
2022-08-26T00:37:02.779Z,23.27
2022-08-26T00:39:31.556Z,23.20
2022-08-26T00:42:00.603Z,23.13
2022-08-26T00:44:28.840Z,22.88
2022-08-26T00:47:04.006Z,22.73
2022-08-26T00:49:39.691Z,22.79
2022-08-26T00:52:13.189Z,22.72
2022-08-26T00:54:46.939Z,22.85
2022-08-26T00:57:18.332Z,22.79
2022-08-26T00:59:48.379Z,22.90
2022-08-26T01:02:20.155Z,22.93
2022-08-26T01:04:54.267Z,22.91
2022-08-26T01:07:26.375Z,22.89
2022-08-26T01:09:56.213Z,22.92
2022-08-26T01:12:25.979Z,22.79
2022-08-26T01:14:54.170Z,22.85
2022-08-26T01:17:23.555Z,22.98
2022-08-26T01:19:56.185Z,22.96
2022-08-26T01:22:28.827Z,22.84
2022-08-26T01:24:59.715Z,22.76
2022-08-26T01:27:32.481Z,22.72
2022-08-26T01:30:02.757Z,22.67
2022-08-26T01:32:33.000Z,22.55
2022-08-26T01:35:01.962Z,22.51
2022-08-26T01:37:38.998Z,22.56
2022-08-26T01:40:15.356Z,22.54
2022-08-26T01:42:46.763Z,22.61
2022-08-26T01:45:18.396Z,22.55
2022-08-26T01:47:56.838Z,22.28
2022-08-26T01:50:30.615Z,22.35
2022-08-26T01:53:02.098Z,22.18
2022-08-26T01:55:34.159Z,22.04
2022-08-26T01:58:06.215Z,22.13
2022-08-26T02:00:36.192Z,22.18
2022-08-26T02:03:21.686Z,22.03
2022-08-26T02:05:53.884Z,21.73
2022-08-26T02:08:26.834Z,21.77
2022-08-26T02:10:56.546Z,21.78
2022-08-26T02:13:26.987Z,21.76
2022-08-26T02:15:56.439Z,21.83
2022-08-26T02:18:25.400Z,22.00
2022-08-26T02:20:54.904Z,22.03
2022-08-26T02:23:24.416Z,21.90
2022-08-26T02:26:02.110Z,21.86
2022-08-26T02:28:37.094Z,21.96
2022-08-26T02:31:05.183Z,21.97
2022-08-26T02:33:36.305Z,21.95
2022-08-26T02:36:05.628Z,22.01
2022-08-26T02:38:35.551Z,21.89
2022-08-26T02:41:05.343Z,21.93
2022-08-26T02:43:36.544Z,22.01
2022-08-26T02:46:06.138Z,22.02
2022-08-26T02:48:34.391Z,21.92
2022-08-26T02:51:04.038Z,21.98
2022-08-26T02:53:35.517Z,21.99
2022-08-26T02:56:08.371Z,21.88
2022-08-26T02:58:36.548Z,21.77
2022-08-26T03:01:04.905Z,21.73
2022-08-26T03:03:34.009Z,21.61
2022-08-26T03:06:02.168Z,21.75
2022-08-26T03:08:32.619Z,21.85
2022-08-26T03:11:01.637Z,21.98
2022-08-26T03:13:31.790Z,22.00
2022-08-26T03:16:02.787Z,21.97
2022-08-26T03:18:31.103Z,22.01
2022-08-26T03:20:59.184Z,21.89
2022-08-26T03:23:27.149Z,22.01
2022-08-26T03:25:56.925Z,21.91
2022-08-26T03:28:24.887Z,21.79
2022-08-26T03:30:57.085Z,21.86
2022-08-26T03:33:26.553Z,21.91
2022-08-26T03:35:55.779Z,21.93
2022-08-26T03:38:26.205Z,22.02
2022-08-26T03:40:54.939Z,22.09
2022-08-26T03:43:26.824Z,22.18
2022-08-26T03:45:56.144Z,22.25
2022-08-26T03:48:25.295Z,22.30
2022-08-26T03:50:53.369Z,22.00
2022-08-26T03:53:21.482Z,22.07
2022-08-26T03:55:51.909Z,22.21
2022-08-26T03:58:20.697Z,22.32
2022-08-26T04:00:49.388Z,22.37
2022-08-26T04:03:38.818Z,22.35
2022-08-26T04:06:07.548Z,22.15
2022-08-26T04:08:35.547Z,22.25
2022-08-26T04:11:03.531Z,22.26
2022-08-26T04:13:32.401Z,22.17
2022-08-26T04:16:00.635Z,22.18
2022-08-26T04:18:36.893Z,22.18
2022-08-26T04:21:07.909Z,22.25
2022-08-26T04:23:47.801Z,22.22
2022-08-26T04:26:16.327Z,22.11
2022-08-26T04:28:47.356Z,22.11
2022-08-26T04:31:17.495Z,22.05
2022-08-26T04:33:51.390Z,22.06
2022-08-26T04:36:19.895Z,22.13
2022-08-26T04:38:48.449Z,21.96
2022-08-26T04:41:17.095Z,22.06
2022-08-26T04:43:46.929Z,22.10
2022-08-26T04:46:22.010Z,22.13
2022-08-26T04:48:51.936Z,22.19
2022-08-26T04:51:20.546Z,22.00
2022-08-26T04:53:48.498Z,22.02
2022-08-26T04:56:18.340Z,21.91
2022-08-26T04:58:46.354Z,21.91
2022-08-26T05:01:14.351Z,21.80
2022-08-26T05:03:43.081Z,21.83
2022-08-26T05:06:13.255Z,21.86
2022-08-26T05:08:41.468Z,21.88
2022-08-26T05:11:10.065Z,21.85
2022-08-26T05:13:39.220Z,21.89
2022-08-26T05:16:11.631Z,21.87
2022-08-26T05:18:44.631Z,21.85
2022-08-26T05:21:20.293Z,21.54
2022-08-26T05:23:49.515Z,21.58
2022-08-26T05:26:17.495Z,21.66
2022-08-26T05:28:51.403Z,21.80
2022-08-26T05:31:26.264Z,21.68
2022-08-26T05:33:54.866Z,21.69
2022-08-26T05:36:26.855Z,21.73
2022-08-26T05:38:55.190Z,21.65
2022-08-26T05:41:27.769Z,21.60
2022-08-26T05:44:03.437Z,21.22
2022-08-26T05:46:31.776Z,21.09
2022-08-26T05:49:00.302Z,21.26
2022-08-26T05:51:30.485Z,21.36
2022-08-26T05:54:03.569Z,21.37
2022-08-26T05:56:31.832Z,21.35
2022-08-26T05:59:02.823Z,21.41
2022-08-26T06:01:35.823Z,21.31
2022-08-26T06:04:04.641Z,21.24
2022-08-26T06:06:36.382Z,21.40
2022-08-26T06:09:11.025Z,21.33
2022-08-26T06:11:40.239Z,21.17
2022-08-26T06:14:09.519Z,21.27
2022-08-26T06:16:40.724Z,21.30
2022-08-26T06:19:10.660Z,21.40
2022-08-26T06:21:42.741Z,21.51
2022-08-26T06:24:31.137Z,21.56
2022-08-26T06:27:01.613Z,21.59
2022-08-26T06:29:31.883Z,21.75
2022-08-26T06:32:00.682Z,21.67
2022-08-26T06:34:30.396Z,21.55
2022-08-26T06:37:02.619Z,21.38
2022-08-26T06:39:32.452Z,21.18
2022-08-26T06:42:00.736Z,21.11
2022-08-26T06:44:31.380Z,21.05
2022-08-26T06:47:00.435Z,21.07
2022-08-26T06:49:28.449Z,20.92
2022-08-26T06:51:58.935Z,20.93
2022-08-26T06:54:30.358Z,20.62
2022-08-26T06:56:58.987Z,20.78
2022-08-26T06:59:27.396Z,20.93
2022-08-26T07:01:55.423Z,21.10
2022-08-26T07:04:32.672Z,21.30
2022-08-26T07:07:00.906Z,21.59
2022-08-26T07:09:33.363Z,21.68
2022-08-26T07:12:01.954Z,21.63
2022-08-26T07:14:31.291Z,21.60
2022-08-26T07:17:01.439Z,21.54
2022-08-26T07:19:30.867Z,21.54
2022-08-26T07:22:02.185Z,21.62
2022-08-26T07:24:32.841Z,21.67
2022-08-26T07:27:02.807Z,21.81
2022-08-26T07:29:34.657Z,21.65
2022-08-26T07:32:03.831Z,21.58
2022-08-26T07:34:33.073Z,21.45
2022-08-26T07:37:01.417Z,21.63
2022-08-26T07:39:31.456Z,21.71
2022-08-26T07:42:07.382Z,21.80
2022-08-26T07:44:36.504Z,21.54
2022-08-26T07:47:10.201Z,21.93
2022-08-26T07:49:52.737Z,22.34
2022-08-26T07:52:26.001Z,22.25
2022-08-26T07:54:54.840Z,22.48
2022-08-26T07:57:24.509Z,22.19
2022-08-26T07:59:54.996Z,22.08
2022-08-26T08:02:24.812Z,22.55
2022-08-26T08:04:53.455Z,22.49
2022-08-26T08:07:38.795Z,22.68
2022-08-26T08:10:11.770Z,22.72
2022-08-26T08:12:43.132Z,23.26
2022-08-26T08:15:14.011Z,23.60
2022-08-26T08:17:42.916Z,24.00
2022-08-26T08:20:12.650Z,24.19
2022-08-26T08:22:41.224Z,24.43
2022-08-26T08:25:10.526Z,24.52
2022-08-26T08:27:42.016Z,24.59
2022-08-26T08:30:13.776Z,24.83
2022-08-26T08:32:43.589Z,25.10
2022-08-26T08:35:13.588Z,25.24
2022-08-26T08:37:43.872Z,25.12
2022-08-26T08:40:18.369Z,24.74
2022-08-26T08:45:36.286Z,24.57
2022-08-26T08:48:07.787Z,24.66
2022-08-26T08:50:40.737Z,24.91
2022-08-26T08:53:17.598Z,25.36
2022-08-26T08:56:10.253Z,25.40
2022-08-26T08:58:52.695Z,25.19
2022-08-26T09:01:39.517Z,25.19
2022-08-26T09:04:25.067Z,24.93
2022-08-26T09:09:35.733Z,24.72
2022-08-26T09:12:05.468Z,25.13
2022-08-26T09:14:34.785Z,25.44
2022-08-26T09:17:10.984Z,25.56
2022-08-26T09:19:44.208Z,25.61
2022-08-26T09:22:12.274Z,25.65
2022-08-26T09:24:48.485Z,25.62
2022-08-26T09:27:38.326Z,25.05
2022-08-26T09:30:11.392Z,24.99
2022-08-26T09:32:41.205Z,25.11
2022-08-26T09:35:12.239Z,25.25
2022-08-26T09:40:23.871Z,25.41
2022-08-26T09:43:15.894Z,25.78
2022-08-26T09:45:50.281Z,25.73
2022-08-26T09:48:28.377Z,25.68
2022-08-26T09:51:00.393Z,26.00
2022-08-26T09:53:31.482Z,26.24
2022-08-26T09:56:16.144Z,26.15
2022-08-26T09:58:47.256Z,26.42
2022-08-26T10:01:32.163Z,26.10
2022-08-26T10:04:10.621Z,26.16
2022-08-26T10:06:42.766Z,26.15
2022-08-26T10:09:16.230Z,26.56
2022-08-26T10:11:49.589Z,26.52
2022-08-26T10:14:24.435Z,26.26
2022-08-26T10:17:01.146Z,26.09
2022-08-26T10:19:56.176Z,26.10
2022-08-26T10:22:29.478Z,26.17
2022-08-26T10:25:00.296Z,26.27
2022-08-26T10:27:51.163Z,26.41
2022-08-26T10:30:23.317Z,26.50
2022-08-26T10:32:57.843Z,26.75
2022-08-26T10:35:27.186Z,26.94
2022-08-26T10:37:57.710Z,26.92
2022-08-26T10:40:28.622Z,26.65
2022-08-26T10:42:59.500Z,26.72
2022-08-26T10:45:30.280Z,26.89
2022-08-26T10:48:06.382Z,26.78
2022-08-26T10:50:39.163Z,26.78
2022-08-26T10:53:15.467Z,26.57
2022-08-26T10:55:51.826Z,26.83
2022-08-26T10:58:47.430Z,26.98
2022-08-26T11:01:40.799Z,27.11
2022-08-26T11:04:22.279Z,27.24
2022-08-26T11:06:52.236Z,27.42
2022-08-26T11:09:45.542Z,27.18
2022-08-26T11:12:49.360Z,27.02
2022-08-26T11:16:05.581Z,27.03
2022-08-26T11:18:46.839Z,26.82
2022-08-26T11:22:02.271Z,26.82
2022-08-26T11:25:11.495Z,27.11
2022-08-26T11:27:55.268Z,27.27
2022-08-26T11:30:58.139Z,27.22
2022-08-26T11:33:59.527Z,27.29
2022-08-26T11:36:57.327Z,27.17
2022-08-26T11:39:30.729Z,27.07
2022-08-26T11:42:04.432Z,27.32
2022-08-26T11:44:40.979Z,27.63
2022-08-26T11:47:26.787Z,27.47
2022-08-26T11:50:15.680Z,27.54
2022-08-26T11:52:53.049Z,28.05
2022-08-26T11:55:24.056Z,27.92
2022-08-26T11:57:55.801Z,28.05
2022-08-26T12:00:27.445Z,28.22
2022-08-26T12:03:03.233Z,28.07
2022-08-26T12:05:36.176Z,28.21
2022-08-26T12:08:10.234Z,28.01
2022-08-26T12:10:40.491Z,27.93
2022-08-26T12:13:09.486Z,27.65
2022-08-26T12:15:37.427Z,27.88
2022-08-26T12:18:29.639Z,27.47
2022-08-26T12:21:01.753Z,27.67
2022-08-26T12:23:41.263Z,28.14
2022-08-26T12:26:19.453Z,27.96
2022-08-26T12:28:49.728Z,28.03
2022-08-26T12:31:23.986Z,28.28
2022-08-26T12:33:54.148Z,28.42
2022-08-26T12:36:27.624Z,28.33
2022-08-26T12:38:58.395Z,28.24
2022-08-26T12:41:43.408Z,28.44
2022-08-26T12:44:33.797Z,28.11
2022-08-26T12:47:10.943Z,27.76
2022-08-26T12:49:41.059Z,27.56
2022-08-26T12:52:30.027Z,27.74
2022-08-26T12:55:00.278Z,27.42
2022-08-26T12:57:32.809Z,27.28
2022-08-26T13:00:34.190Z,27.09
2022-08-26T13:03:03.084Z,27.12
2022-08-26T13:05:35.413Z,27.43
2022-08-26T13:08:14.696Z,27.71
2022-08-26T13:10:44.658Z,28.45
2022-08-26T13:13:14.095Z,28.21
2022-08-26T13:15:42.136Z,27.63
2022-08-26T13:18:10.099Z,27.99
2022-08-26T13:20:44.269Z,28.55
2022-08-26T13:23:12.534Z,28.43
2022-08-26T13:25:40.930Z,28.50
2022-08-26T13:28:08.961Z,28.78
2022-08-26T13:30:38.366Z,28.84
2022-08-26T13:33:08.867Z,28.75
2022-08-26T13:35:40.212Z,29.02
2022-08-26T13:38:14.724Z,29.05
2022-08-26T13:41:01.757Z,28.89
2022-08-26T13:43:30.724Z,28.97
2022-08-26T13:46:01.621Z,28.99
2022-08-26T13:48:34.027Z,28.85
2022-08-26T13:51:02.841Z,28.73
2022-08-26T13:53:36.238Z,28.70
2022-08-26T13:56:06.967Z,28.69
2022-08-26T13:58:37.234Z,28.70
2022-08-26T14:01:06.791Z,28.44
2022-08-26T14:03:34.843Z,28.74
2022-08-26T14:06:02.936Z,29.03
2022-08-26T14:08:32.323Z,28.88
2022-08-26T14:11:00.323Z,29.02
2022-08-26T14:13:28.527Z,29.14
2022-08-26T14:15:58.816Z,29.32
2022-08-26T14:18:36.348Z,29.42
2022-08-26T14:21:13.925Z,28.93
2022-08-26T14:23:42.083Z,29.03
2022-08-26T14:26:14.292Z,29.13
2022-08-26T14:28:51.223Z,28.78
2022-08-26T14:31:19.328Z,28.66
2022-08-26T14:33:48.698Z,28.73
2022-08-26T14:36:32.714Z,28.63
2022-08-26T14:39:04.118Z,28.45
2022-08-26T14:41:34.623Z,28.63
2022-08-26T14:44:05.593Z,28.76
2022-08-26T14:46:39.025Z,28.46
2022-08-26T14:49:10.646Z,28.35
2022-08-26T14:51:39.221Z,28.56
2022-08-26T14:54:12.383Z,28.37
2022-08-26T14:56:44.723Z,28.34
2022-08-26T14:59:13.642Z,28.25
2022-08-26T15:01:42.306Z,28.46
2022-08-26T15:04:11.927Z,28.68
2022-08-26T15:06:42.275Z,28.35
2022-08-26T15:09:10.304Z,28.58
2022-08-26T15:11:38.327Z,28.70
2022-08-26T15:14:06.683Z,28.65
2022-08-26T15:16:35.283Z,29.02
2022-08-26T15:19:05.682Z,28.78
2022-08-26T15:21:36.918Z,29.18
2022-08-26T15:24:05.704Z,29.08
2022-08-26T15:26:35.198Z,29.07
2022-08-26T15:29:05.162Z,28.89
2022-08-26T15:31:35.102Z,28.76
2022-08-26T15:34:06.366Z,28.91
2022-08-26T15:36:39.819Z,28.62
2022-08-26T15:39:09.035Z,28.30
2022-08-26T15:41:40.492Z,28.41
2022-08-26T15:44:09.490Z,28.35
2022-08-26T15:46:38.664Z,28.05
2022-08-26T15:49:07.726Z,28.14
2022-08-26T15:51:45.619Z,28.06
2022-08-26T15:54:17.630Z,28.14
2022-08-26T15:56:51.768Z,28.08
2022-08-26T15:59:20.954Z,28.16
2022-08-26T16:01:49.130Z,28.02
2022-08-26T16:04:18.661Z,28.12
2022-08-26T16:06:50.241Z,28.19
2022-08-26T16:09:20.723Z,28.05
2022-08-26T16:11:48.715Z,28.29
2022-08-26T16:14:17.109Z,27.75
2022-08-26T16:16:45.165Z,27.78
2022-08-26T16:19:13.153Z,27.74
2022-08-26T16:21:42.004Z,27.89
2022-08-26T16:24:10.844Z,28.11
2022-08-26T16:26:41.880Z,27.98
2022-08-26T16:29:11.557Z,27.84
2022-08-26T16:31:39.772Z,27.90
2022-08-26T16:34:08.998Z,27.63
2022-08-26T16:36:40.956Z,27.52
2022-08-26T16:39:10.309Z,27.72
2022-08-26T16:41:42.894Z,27.99
2022-08-26T16:44:12.061Z,28.01
2022-08-26T16:46:41.240Z,28.16
2022-08-26T16:49:09.498Z,27.82
2022-08-26T16:51:38.246Z,28.05
2022-08-26T16:54:08.645Z,27.66
2022-08-26T16:56:37.890Z,27.71
2022-08-26T16:59:09.584Z,27.83
2022-08-26T17:01:37.792Z,28.01
2022-08-26T17:04:06.306Z,27.65
2022-08-26T17:06:34.335Z,27.57
2022-08-26T17:09:02.411Z,27.61
2022-08-26T17:11:30.436Z,27.21
2022-08-26T17:13:58.467Z,27.24
2022-08-26T17:16:27.969Z,27.38
2022-08-26T17:18:57.150Z,27.41
2022-08-26T17:21:26.760Z,27.23
2022-08-26T17:23:54.917Z,27.09
2022-08-26T17:26:23.049Z,26.89
2022-08-26T17:28:51.503Z,26.74
2022-08-26T17:31:19.806Z,26.80
2022-08-26T17:33:53.930Z,26.80
2022-08-26T17:36:28.147Z,26.73
2022-08-26T17:38:57.115Z,26.59
2022-08-26T17:41:25.399Z,26.38
2022-08-26T17:43:53.438Z,26.20
2022-08-26T17:46:21.460Z,26.19
2022-08-26T17:48:50.830Z,25.96
2022-08-26T17:51:20.315Z,25.87
2022-08-26T17:53:49.122Z,25.70
2022-08-26T17:56:19.426Z,25.69
2022-08-26T17:58:51.247Z,25.61
2022-08-26T18:01:20.819Z,25.34
2022-08-26T18:03:51.029Z,25.35
2022-08-26T18:06:20.724Z,25.39
2022-08-26T18:08:49.326Z,25.22
2022-08-26T18:11:19.053Z,25.22
2022-08-26T18:13:47.894Z,25.22
2022-08-26T18:16:17.634Z,25.30
2022-08-26T18:18:46.518Z,25.22
2022-08-26T18:21:18.070Z,25.10
2022-08-26T18:23:47.861Z,25.03
2022-08-26T18:26:19.761Z,24.69
2022-08-26T18:28:47.824Z,24.63
2022-08-26T18:31:16.414Z,24.54
2022-08-26T18:33:44.673Z,24.53
2022-08-26T18:36:21.951Z,24.46
2022-08-26T18:38:51.521Z,24.50
2022-08-26T18:41:21.411Z,24.46
2022-08-26T18:43:50.566Z,24.25
2022-08-26T18:46:20.443Z,24.03
2022-08-26T18:48:51.078Z,23.97
2022-08-26T18:51:23.742Z,24.08
2022-08-26T18:53:52.350Z,24.15
2022-08-26T18:56:20.690Z,24.19
2022-08-26T18:58:49.127Z,24.01
2022-08-26T19:01:17.523Z,24.11
2022-08-26T19:03:45.853Z,23.94
2022-08-26T19:06:18.936Z,23.83
2022-08-26T19:08:49.717Z,23.79
2022-08-26T19:11:31.624Z,23.83
2022-08-26T19:14:01.078Z,23.61
2022-08-26T19:16:30.057Z,23.57
2022-08-26T19:18:58.929Z,23.36
2022-08-26T19:21:26.970Z,23.25
2022-08-26T19:23:58.984Z,23.31
2022-08-26T19:26:28.069Z,23.41
2022-08-26T19:28:56.187Z,23.01
2022-08-26T19:31:24.620Z,23.01
2022-08-26T19:33:52.640Z,23.01
2022-08-26T19:36:23.550Z,22.85
2022-08-26T19:38:51.778Z,22.74
2022-08-26T19:41:36.972Z,22.58
2022-08-26T19:44:08.247Z,22.77
2022-08-26T19:49:10.243Z,22.68
2022-08-26T19:51:38.256Z,22.70
2022-08-26T19:54:06.564Z,22.69
2022-08-26T19:56:38.887Z,22.44
2022-08-26T19:59:06.853Z,22.47
2022-08-26T20:01:34.878Z,22.45
2022-08-26T20:04:02.897Z,22.46
2022-08-26T20:06:30.905Z,22.47
2022-08-26T20:08:58.858Z,22.37
2022-08-26T20:11:27.119Z,22.42
2022-08-26T20:13:57.179Z,22.42
2022-08-26T20:16:25.334Z,22.43
2022-08-26T20:19:11.023Z,22.49
2022-08-26T20:21:41.384Z,22.53
2022-08-26T20:24:13.074Z,22.42
2022-08-26T20:26:43.083Z,22.28
2022-08-26T20:29:15.080Z,22.38
2022-08-26T20:31:44.193Z,22.59
2022-08-26T20:34:13.326Z,22.70
2022-08-26T20:36:42.867Z,22.88
2022-08-26T20:39:11.877Z,22.83
2022-08-26T20:41:40.209Z,22.68
2022-08-26T20:44:09.477Z,22.89
2022-08-26T20:46:39.086Z,22.87
2022-08-26T20:49:08.331Z,22.76
2022-08-26T20:51:37.473Z,22.67
2022-08-26T20:54:06.563Z,22.61
2022-08-26T20:56:35.035Z,22.57
2022-08-26T20:59:03.753Z,22.27
2022-08-26T21:01:34.907Z,22.19
2022-08-26T21:04:07.370Z,22.10
2022-08-26T21:06:35.916Z,22.06
2022-08-26T21:09:05.783Z,22.14
2022-08-26T21:11:34.415Z,22.22
2022-08-26T21:14:06.929Z,22.23
2022-08-26T21:16:45.166Z,22.01
2022-08-26T21:19:17.703Z,22.20
2022-08-26T21:21:46.706Z,22.28
2022-08-26T21:24:15.085Z,22.27
2022-08-26T21:26:43.946Z,22.12
2022-08-26T21:29:13.588Z,22.02
2022-08-26T21:31:46.002Z,22.21
2022-08-26T21:34:17.611Z,22.28
2022-08-26T21:36:46.419Z,22.34
2022-08-26T21:39:15.175Z,22.24
2022-08-26T21:41:44.486Z,22.11
2022-08-26T21:44:14.354Z,22.04
2022-08-26T21:46:42.638Z,22.06
2022-08-26T21:49:13.784Z,21.86
2022-08-26T21:51:45.266Z,21.78
2022-08-26T21:54:14.519Z,21.63
2022-08-26T21:56:46.684Z,21.66
2022-08-26T21:59:16.686Z,21.75
2022-08-26T22:01:44.702Z,21.86
2022-08-26T22:04:12.810Z,21.63
2022-08-26T22:06:46.455Z,21.44
2022-08-26T22:09:15.818Z,21.40
2022-08-26T22:11:44.505Z,21.41
2022-08-26T22:14:13.108Z,21.42
2022-08-26T22:16:41.502Z,21.38
2022-08-26T22:19:18.187Z,21.43
2022-08-26T22:21:49.509Z,21.53
2022-08-26T22:24:18.243Z,21.35
2022-08-26T22:26:47.316Z,21.23
2022-08-26T22:29:15.707Z,21.30
2022-08-26T22:31:43.739Z,21.40
2022-08-26T22:34:15.255Z,21.38
2022-08-26T22:36:45.789Z,21.39
2022-08-26T22:39:17.360Z,21.37
2022-08-26T22:41:48.614Z,21.39
2022-08-26T22:44:17.960Z,21.30
2022-08-26T22:46:47.183Z,21.29
2022-08-26T22:49:17.147Z,21.34
2022-08-26T22:51:45.968Z,21.43
2022-08-26T22:54:15.870Z,21.54
2022-08-26T22:56:44.967Z,21.46
2022-08-26T22:59:14.252Z,21.47
2022-08-26T23:01:44.159Z,21.43
2022-08-26T23:04:12.605Z,21.36
2022-08-26T23:06:43.183Z,21.34
2022-08-26T23:09:18.389Z,21.33
2022-08-26T23:11:47.428Z,21.44
2022-08-26T23:14:16.442Z,21.56
2022-08-26T23:16:44.664Z,21.49
2022-08-26T23:19:14.840Z,21.32
2022-08-26T23:21:43.633Z,21.44
2022-08-26T23:24:12.531Z,21.26
2022-08-26T23:26:43.769Z,21.37
2022-08-26T23:29:13.467Z,21.33
2022-08-26T23:31:43.161Z,21.34
2022-08-26T23:34:29.823Z,21.31
2022-08-26T23:36:58.495Z,21.39
2022-08-26T23:39:26.591Z,21.41
2022-08-26T23:41:57.038Z,21.28
2022-08-26T23:44:26.550Z,21.24
2022-08-26T23:46:54.578Z,21.37
2022-08-26T23:49:22.737Z,21.37
2022-08-26T23:52:07.962Z,21.52
2022-08-26T23:54:36.188Z,21.49
2022-08-26T23:57:06.004Z,21.28
2022-08-26T23:59:34.505Z,21.32
